sensor_id;sensor_type;location;lat;lon;timestamp;pressure;altitude;pressure_sealevel;temperature;humidity
9261;BME280;4667;42.726;23.252;2023-03-01T00:09:48;95720.56;;;7.50;nan
9261;BME280;4667;42.726;23.252;2023-03-01T00:56:23;95676.84;;;7.21;nan
9261;BME280;4667;42.726;23.252;2023-03-01T01:01:19;95665.94;;;7.14;nan
9261;BME280;4667;42.726;23.252;2023-03-01T01:03:48;95675.84;;;7.10;nan
9261;BME280;4667;42.726;23.252;2023-03-01T02:32:32;95650.94;;;6.97;nan
9261;BME280;4667;42.726;23.252;2023-03-01T02:37:25;95653.53;;;6.75;nan
9261;BME280;4667;42.726;23.252;2023-03-01T02:39:57;95663.72;;;7.01;nan
9261;BME280;4667;42.726;23.252;2023-03-01T02:42:26;95662.88;;;6.96;nan
9261;BME280;4667;42.726;23.252;2023-03-01T02:44:54;95660.97;;;6.97;nan
9261;BME280;4667;42.726;23.252;2023-03-01T02:47:22;95666.66;;;6.76;nan
9261;BME280;4667;42.726;23.252;2023-03-01T02:49:49;95667.88;;;6.79;nan
9261;BME280;4667;42.726;23.252;2023-03-01T02:52:23;95662.22;;;6.84;nan
9261;BME280;4667;42.726;23.252;2023-03-01T02:54:57;95664.97;;;6.87;nan
9261;BME280;4667;42.726;23.252;2023-03-01T02:57:25;95658.41;;;6.85;nan
9261;BME280;4667;42.726;23.252;2023-03-01T02:59:54;95655.34;;;6.86;nan
9261;BME280;4667;42.726;23.252;2023-03-01T03:02:24;95666.19;;;6.90;nan
9261;BME280;4667;42.726;23.252;2023-03-01T03:05:03;95655.44;;;6.90;nan
9261;BME280;4667;42.726;23.252;2023-03-01T03:07:32;95657.53;;;6.81;nan
9261;BME280;4667;42.726;23.252;2023-03-01T03:09:59;95653.25;;;6.80;nan
9261;BME280;4667;42.726;23.252;2023-03-01T03:12:26;95652.75;;;6.74;nan
9261;BME280;4667;42.726;23.252;2023-03-01T03:14:53;95659.97;;;6.70;nan
9261;BME280;4667;42.726;23.252;2023-03-01T03:17:19;95652.63;;;6.67;nan
9261;BME280;4667;42.726;23.252;2023-03-01T03:19:48;95665.88;;;6.76;nan
9261;BME280;4667;42.726;23.252;2023-03-01T03:22:14;95667.00;;;6.75;nan
9261;BME280;4667;42.726;23.252;2023-03-01T03:24:41;95659.03;;;6.78;nan
9261;BME280;4667;42.726;23.252;2023-03-01T03:27:08;95672.97;;;6.84;nan
9261;BME280;4667;42.726;23.252;2023-03-01T03:29:35;95666.03;;;6.83;nan
9261;BME280;4667;42.726;23.252;2023-03-01T03:32:01;95667.16;;;6.82;nan
9261;BME280;4667;42.726;23.252;2023-03-01T03:34:28;95668.16;;;6.93;nan
9261;BME280;4667;42.726;23.252;2023-03-01T03:36:56;95668.00;;;6.86;nan
9261;BME280;4667;42.726;23.252;2023-03-01T03:39:25;95678.28;;;6.80;nan
9261;BME280;4667;42.726;23.252;2023-03-01T03:41:52;95670.81;;;6.89;nan
9261;BME280;4667;42.726;23.252;2023-03-01T03:44:20;95680.78;;;6.89;nan
9261;BME280;4667;42.726;23.252;2023-03-01T03:46:47;95679.66;;;6.90;nan
9261;BME280;4667;42.726;23.252;2023-03-01T03:51:59;95684.38;;;6.77;nan
9261;BME280;4667;42.726;23.252;2023-03-01T03:54:25;95680.84;;;6.73;nan
9261;BME280;4667;42.726;23.252;2023-03-01T03:56:52;95679.16;;;6.69;nan
9261;BME280;4667;42.726;23.252;2023-03-01T03:59:19;95679.38;;;6.60;nan
9261;BME280;4667;42.726;23.252;2023-03-01T04:01:45;95682.38;;;6.74;nan
9261;BME280;4667;42.726;23.252;2023-03-01T04:04:12;95681.41;;;6.82;nan
9261;BME280;4667;42.726;23.252;2023-03-01T04:06:39;95673.78;;;6.84;nan
9261;BME280;4667;42.726;23.252;2023-03-01T04:09:07;95681.25;;;6.75;nan
9261;BME280;4667;42.726;23.252;2023-03-01T04:11:34;95681.88;;;6.69;nan
9261;BME280;4667;42.726;23.252;2023-03-01T04:14:00;95680.06;;;6.57;nan
9261;BME280;4667;42.726;23.252;2023-03-01T04:16:29;95681.69;;;6.62;nan
9261;BME280;4667;42.726;23.252;2023-03-01T04:18:56;95676.00;;;6.47;nan
9261;BME280;4667;42.726;23.252;2023-03-01T04:21:25;95675.38;;;6.38;nan
9261;BME280;4667;42.726;23.252;2023-03-01T04:23:52;95678.59;;;6.44;nan
9261;BME280;4667;42.726;23.252;2023-03-01T04:26:20;95680.59;;;6.47;nan
9261;BME280;4667;42.726;23.252;2023-03-01T04:28:50;95676.06;;;6.51;nan
9261;BME280;4667;42.726;23.252;2023-03-01T04:31:18;95668.28;;;6.46;nan
9261;BME280;4667;42.726;23.252;2023-03-01T04:33:48;95673.59;;;6.42;nan
9261;BME280;4667;42.726;23.252;2023-03-01T04:36:18;95679.22;;;6.37;nan
9261;BME280;4667;42.726;23.252;2023-03-01T04:38:45;95681.91;;;6.37;nan
9261;BME280;4667;42.726;23.252;2023-03-01T04:41:15;95676.88;;;6.36;nan
9261;BME280;4667;42.726;23.252;2023-03-01T04:43:44;95664.72;;;6.26;nan
9261;BME280;4667;42.726;23.252;2023-03-01T04:46:12;95660.03;;;6.23;nan
9261;BME280;4667;42.726;23.252;2023-03-01T04:48:41;95667.84;;;6.28;nan
9261;BME280;4667;42.726;23.252;2023-03-01T04:51:14;95662.75;;;6.23;nan
9261;BME280;4667;42.726;23.252;2023-03-01T04:53:43;95660.31;;;6.18;nan
9261;BME280;4667;42.726;23.252;2023-03-01T04:56:10;95665.97;;;6.13;nan
9261;BME280;4667;42.726;23.252;2023-03-01T04:58:39;95660.59;;;6.13;nan
9261;BME280;4667;42.726;23.252;2023-03-01T05:01:11;95675.03;;;6.08;nan
9261;BME280;4667;42.726;23.252;2023-03-01T05:03:41;95653.00;;;6.03;nan
9261;BME280;4667;42.726;23.252;2023-03-01T05:18:26;95676.66;;;5.82;nan
9261;BME280;4667;42.726;23.252;2023-03-01T05:23:23;95684.69;;;5.94;nan
9261;BME280;4667;42.726;23.252;2023-03-01T05:25:50;95680.09;;;5.94;nan
9261;BME280;4667;42.726;23.252;2023-03-01T05:28:18;95679.56;;;5.89;nan
9261;BME280;4667;42.726;23.252;2023-03-01T05:30:46;95675.59;;;5.86;nan
9261;BME280;4667;42.726;23.252;2023-03-01T05:33:13;95674.03;;;5.85;nan
9261;BME280;4667;42.726;23.252;2023-03-01T05:35:41;95679.56;;;5.89;nan
9261;BME280;4667;42.726;23.252;2023-03-01T05:38:10;95675.75;;;5.90;nan
9261;BME280;4667;42.726;23.252;2023-03-01T05:40:38;95683.81;;;5.90;nan
9261;BME280;4667;42.726;23.252;2023-03-01T05:43:06;95688.41;;;5.89;nan
9261;BME280;4667;42.726;23.252;2023-03-01T05:47:59;95689.09;;;6.02;nan
9261;BME280;4667;42.726;23.252;2023-03-01T05:50:28;95690.06;;;5.94;nan
9261;BME280;4667;42.726;23.252;2023-03-01T05:53:02;95695.63;;;6.01;nan
9261;BME280;4667;42.726;23.252;2023-03-01T06:00:24;95711.84;;;6.36;nan
9261;BME280;4667;42.726;23.252;2023-03-01T06:02:53;95704.13;;;6.34;nan
9261;BME280;4667;42.726;23.252;2023-03-01T06:05:21;95704.91;;;6.35;nan
9261;BME280;4667;42.726;23.252;2023-03-01T06:07:48;95715.59;;;6.31;nan
9261;BME280;4667;42.726;23.252;2023-03-01T06:10:17;95709.44;;;6.31;nan
9261;BME280;4667;42.726;23.252;2023-03-01T06:12:45;95711.94;;;6.39;nan
9261;BME280;4667;42.726;23.252;2023-03-01T06:15:12;95714.22;;;6.37;nan
9261;BME280;4667;42.726;23.252;2023-03-01T06:17:41;95719.16;;;6.35;nan
9261;BME280;4667;42.726;23.252;2023-03-01T06:20:11;95723.56;;;6.43;nan
9261;BME280;4667;42.726;23.252;2023-03-01T06:22:38;95724.63;;;6.54;nan
9261;BME280;4667;42.726;23.252;2023-03-01T06:25:06;95723.56;;;6.59;nan
9261;BME280;4667;42.726;23.252;2023-03-01T06:27:36;95724.75;;;6.62;nan
9261;BME280;4667;42.726;23.252;2023-03-01T06:30:04;95725.66;;;6.66;nan
9261;BME280;4667;42.726;23.252;2023-03-01T06:32:31;95721.66;;;6.60;nan
9261;BME280;4667;42.726;23.252;2023-03-01T06:34:58;95719.13;;;6.67;nan
9261;BME280;4667;42.726;23.252;2023-03-01T06:37:25;95726.59;;;6.73;nan
9261;BME280;4667;42.726;23.252;2023-03-01T06:42:18;95718.88;;;6.72;nan
9261;BME280;4667;42.726;23.252;2023-03-01T06:44:47;95729.69;;;6.75;nan
9261;BME280;4667;42.726;23.252;2023-03-01T06:47:14;95723.03;;;6.85;nan
9261;BME280;4667;42.726;23.252;2023-03-01T06:49:40;95714.28;;;6.91;nan
9261;BME280;4667;42.726;23.252;2023-03-01T06:52:07;95717.25;;;6.86;nan
9261;BME280;4667;42.726;23.252;2023-03-01T06:57:01;95724.56;;;6.86;nan
9261;BME280;4667;42.726;23.252;2023-03-01T07:01:59;95722.84;;;6.78;nan
9261;BME280;4667;42.726;23.252;2023-03-01T07:09:25;95728.53;;;7.08;nan
9261;BME280;4667;42.726;23.252;2023-03-01T07:11:52;95720.66;;;7.18;nan
9261;BME280;4667;42.726;23.252;2023-03-01T07:16:49;95714.00;;;7.12;nan
9261;BME280;4667;42.726;23.252;2023-03-01T07:27:54;95708.63;;;7.31;nan
9261;BME280;4667;42.726;23.252;2023-03-01T07:30:30;95701.19;;;7.25;nan
9261;BME280;4667;42.726;23.252;2023-03-01T07:33:14;95710.84;;;7.26;nan
9261;BME280;4667;42.726;23.252;2023-03-01T07:35:59;95709.66;;;7.27;nan
9261;BME280;4667;42.726;23.252;2023-03-01T07:51:35;95702.22;;;7.78;nan
9261;BME280;4667;42.726;23.252;2023-03-01T07:54:33;95709.69;;;7.85;nan
9261;BME280;4667;42.726;23.252;2023-03-01T07:57:16;95694.97;;;7.82;nan
9261;BME280;4667;42.726;23.252;2023-03-01T07:59:57;95697.13;;;7.92;nan
9261;BME280;4667;42.726;23.252;2023-03-01T08:12:11;95689.91;;;8.00;nan
9261;BME280;4667;42.726;23.252;2023-03-01T08:14:38;95685.25;;;7.97;nan
9261;BME280;4667;42.726;23.252;2023-03-01T08:17:05;95687.78;;;8.09;nan
9261;BME280;4667;42.726;23.252;2023-03-01T08:19:38;95687.16;;;8.19;nan
9261;BME280;4667;42.726;23.252;2023-03-01T08:22:05;95683.06;;;8.29;nan
9261;BME280;4667;42.726;23.252;2023-03-01T08:24:33;95690.00;;;8.26;nan
9261;BME280;4667;42.726;23.252;2023-03-01T08:27:00;95679.13;;;8.23;nan
9261;BME280;4667;42.726;23.252;2023-03-01T08:29:28;95691.78;;;8.18;nan
9261;BME280;4667;42.726;23.252;2023-03-01T08:31:54;95679.50;;;8.21;nan
9261;BME280;4667;42.726;23.252;2023-03-01T08:34:21;95678.72;;;8.20;nan
9261;BME280;4667;42.726;23.252;2023-03-01T08:44:48;95675.97;;;8.63;nan
9261;BME280;4667;42.726;23.252;2023-03-01T08:47:15;95678.97;;;8.57;nan
9261;BME280;4667;42.726;23.252;2023-03-01T08:49:42;95675.84;;;8.55;nan
9261;BME280;4667;42.726;23.252;2023-03-01T08:52:08;95676.28;;;8.57;nan
9261;BME280;4667;42.726;23.252;2023-03-01T08:54:57;95669.94;;;8.73;nan
9261;BME280;4667;42.726;23.252;2023-03-01T08:57:38;95681.16;;;8.75;nan
9261;BME280;4667;42.726;23.252;2023-03-01T10:10:55;95638.66;;;10.02;nan
9261;BME280;4667;42.726;23.252;2023-03-01T10:13:24;95638.13;;;9.89;nan
9261;BME280;4667;42.726;23.252;2023-03-01T10:15:55;95635.81;;;9.88;nan
9261;BME280;4667;42.726;23.252;2023-03-01T10:18:25;95631.31;;;10.02;nan
9261;BME280;4667;42.726;23.252;2023-03-01T10:20:57;95628.31;;;10.14;nan
9261;BME280;4667;42.726;23.252;2023-03-01T10:23:26;95625.25;;;10.16;nan
9261;BME280;4667;42.726;23.252;2023-03-01T10:26:15;95624.16;;;10.20;nan
9261;BME280;4667;42.726;23.252;2023-03-01T10:31:24;95624.84;;;10.14;nan
9261;BME280;4667;42.726;23.252;2023-03-01T10:33:53;95620.81;;;10.38;nan
9261;BME280;4667;42.726;23.252;2023-03-01T10:36:23;95614.22;;;10.35;nan
9261;BME280;4667;42.726;23.252;2023-03-01T10:38:52;95614.34;;;10.53;nan
9261;BME280;4667;42.726;23.252;2023-03-01T10:41:24;95616.03;;;10.79;nan
9261;BME280;4667;42.726;23.252;2023-03-01T10:43:53;95616.78;;;10.69;nan
9261;BME280;4667;42.726;23.252;2023-03-01T10:46:29;95620.69;;;10.75;nan
9261;BME280;4667;42.726;23.252;2023-03-01T10:49:10;95604.38;;;10.68;nan
9261;BME280;4667;42.726;23.252;2023-03-01T10:54:17;95609.19;;;10.34;nan
9261;BME280;4667;42.726;23.252;2023-03-01T10:59:22;95601.25;;;10.14;nan
9261;BME280;4667;42.726;23.252;2023-03-01T11:02:03;95605.09;;;10.13;nan
9261;BME280;4667;42.726;23.252;2023-03-01T11:07:02;95609.81;;;10.16;nan
9261;BME280;4667;42.726;23.252;2023-03-01T11:09:31;95617.94;;;10.20;nan
9261;BME280;4667;42.726;23.252;2023-03-01T11:12:13;95613.69;;;10.19;nan
9261;BME280;4667;42.726;23.252;2023-03-01T11:15:24;95605.97;;;10.21;nan
9261;BME280;4667;42.726;23.252;2023-03-01T11:23:45;95595.09;;;10.69;nan
9261;BME280;4667;42.726;23.252;2023-03-01T11:29:16;95595.56;;;10.85;nan
9261;BME280;4667;42.726;23.252;2023-03-01T11:32:02;95580.50;;;10.84;nan
9261;BME280;4667;42.726;23.252;2023-03-01T11:34:49;95591.91;;;10.52;nan
9261;BME280;4667;42.726;23.252;2023-03-01T11:52:38;95554.78;;;10.05;nan
9261;BME280;4667;42.726;23.252;2023-03-01T12:01:49;95555.56;;;10.06;nan
9261;BME280;4667;42.726;23.252;2023-03-01T12:07:37;95552.38;;;9.97;nan
9261;BME280;4667;42.726;23.252;2023-03-01T12:10:26;95542.00;;;10.02;nan
9261;BME280;4667;42.726;23.252;2023-03-01T12:15:51;95551.38;;;10.15;nan
9261;BME280;4667;42.726;23.252;2023-03-01T12:32:43;95529.94;;;11.41;nan
9261;BME280;4667;42.726;23.252;2023-03-01T16:07:43;95487.44;;;7.89;nan
9261;BME280;4667;42.726;23.252;2023-03-01T16:47:04;95484.31;;;7.61;nan
9261;BME280;4667;42.726;23.252;2023-03-01T17:36:42;95510.41;;;7.11;nan
9261;BME280;4667;42.726;23.252;2023-03-01T18:04:34;95517.16;;;7.21;nan
9261;BME280;4667;42.726;23.252;2023-03-01T18:17:02;95518.06;;;7.09;nan
9261;BME280;4667;42.726;23.252;2023-03-01T18:27:06;95526.59;;;6.92;nan
9261;BME280;4667;42.726;23.252;2023-03-01T19:16:31;95545.72;;;6.87;nan
9261;BME280;4667;42.726;23.252;2023-03-01T19:23:53;95547.13;;;7.00;nan
